createdAt,value
2022-11-30T00:02:00.475Z,82.66
2022-11-30T00:07:02.122Z,82.55
2022-11-30T00:12:03.999Z,82.04
2022-11-30T00:17:05.686Z,82.13
2022-11-30T00:22:07.345Z,82.38
2022-11-30T00:27:08.890Z,82.52
2022-11-30T00:32:10.442Z,81.94
2022-11-30T00:37:12.017Z,82.19
2022-11-30T00:42:13.730Z,82.36
2022-11-30T00:47:15.268Z,82.02
2022-11-30T00:52:16.815Z,82.09
2022-11-30T00:57:18.414Z,81.93
2022-11-30T01:02:20.269Z,82.30
2022-11-30T01:07:21.907Z,82.29
2022-11-30T01:12:23.545Z,82.51
2022-11-30T01:17:25.119Z,82.38
2022-11-30T01:22:26.678Z,82.54
2022-11-30T01:27:28.411Z,82.66
2022-11-30T01:32:29.982Z,82.33
2022-11-30T01:37:31.581Z,82.03
2022-11-30T01:42:33.294Z,82.68
2022-11-30T01:47:39.360Z,82.34
2022-11-30T01:52:46.876Z,82.71
2022-11-30T01:57:52.506Z,82.54
2022-11-30T02:03:02.676Z,82.80
2022-11-30T02:08:06.066Z,82.91
2022-11-30T02:13:39.192Z,83.51
2022-11-30T02:18:55.698Z,82.80
2022-11-30T02:24:26.659Z,82.81
2022-11-30T02:29:34.720Z,83.71
2022-11-30T02:34:38.118Z,83.88
2022-11-30T02:39:39.686Z,83.95
2022-11-30T02:44:45.645Z,83.71
2022-11-30T02:50:04.609Z,84.42
2022-11-30T02:55:09.362Z,84.41
2022-11-30T03:00:12.722Z,85.05
2022-11-30T03:05:14.395Z,85.48
2022-11-30T03:10:15.969Z,86.45
2022-11-30T03:15:17.587Z,86.22
2022-11-30T03:20:19.156Z,86.83
2022-11-30T03:25:20.827Z,87.01
2022-11-30T03:30:22.479Z,86.66
2022-11-30T03:35:24.684Z,86.99
2022-11-30T03:40:26.225Z,86.10
2022-11-30T03:45:27.803Z,86.51
2022-11-30T03:50:29.389Z,85.76
2022-11-30T03:55:30.929Z,86.01
2022-11-30T04:00:32.471Z,86.76
2022-11-30T04:05:34.119Z,87.28
2022-11-30T04:10:36.016Z,88.60
2022-11-30T04:15:37.623Z,88.51
2022-11-30T04:20:40.734Z,88.17
2022-11-30T04:25:42.620Z,88.26
2022-11-30T04:30:45.939Z,87.85
2022-11-30T04:35:52.060Z,88.24
2022-11-30T04:40:54.389Z,88.11
2022-11-30T04:45:55.966Z,88.18
2022-11-30T04:51:08.559Z,87.94
2022-11-30T04:56:12.010Z,87.68
2022-11-30T05:01:13.612Z,87.80
2022-11-30T05:06:15.164Z,87.31
2022-11-30T05:11:16.731Z,87.70
2022-11-30T05:16:18.335Z,87.30
2022-11-30T05:21:19.919Z,88.42
2022-11-30T05:26:21.520Z,89.38
2022-11-30T05:31:23.139Z,88.94
2022-11-30T05:36:24.760Z,89.29
2022-11-30T05:41:26.430Z,88.45
2022-11-30T05:46:28.071Z,88.49
2022-11-30T05:51:29.763Z,88.78
2022-11-30T05:56:31.371Z,87.90
2022-11-30T06:01:32.993Z,89.17
2022-11-30T06:06:34.645Z,89.21
2022-11-30T06:11:36.311Z,89.23
2022-11-30T06:16:39.795Z,88.73
2022-11-30T06:21:41.536Z,88.70
2022-11-30T06:26:43.153Z,88.55
2022-11-30T06:31:44.746Z,88.69
2022-11-30T06:36:46.603Z,88.78
2022-11-30T06:41:53.074Z,88.97
2022-11-30T06:46:56.090Z,88.76
2022-11-30T06:51:57.737Z,89.36
2022-11-30T06:56:59.391Z,87.82
2022-11-30T07:02:07.485Z,88.46
2022-11-30T07:07:10.491Z,88.40
2022-11-30T07:12:12.197Z,89.19
2022-11-30T07:17:13.796Z,89.33
2022-11-30T07:22:15.416Z,89.02
2022-11-30T07:27:16.970Z,89.10
2022-11-30T07:32:19.358Z,89.13
2022-11-30T07:37:20.965Z,88.18
2022-11-30T07:42:23.008Z,88.64
2022-11-30T07:47:24.536Z,87.71
2022-11-30T07:52:26.103Z,88.01
2022-11-30T07:57:27.755Z,88.34
2022-11-30T08:02:29.369Z,88.46
2022-11-30T08:07:31.019Z,87.54
2022-11-30T08:12:32.661Z,88.63
2022-11-30T08:17:34.289Z,87.26
2022-11-30T08:22:36.274Z,87.68
2022-11-30T08:27:37.964Z,87.55
2022-11-30T08:32:39.545Z,87.02
2022-11-30T08:37:41.089Z,87.56
2022-11-30T08:42:42.647Z,86.34
2022-11-30T08:47:44.222Z,86.54
2022-11-30T08:52:45.777Z,86.89
2022-11-30T08:57:47.353Z,87.96
2022-11-30T09:02:48.950Z,87.82
2022-11-30T09:07:50.633Z,87.18
2022-11-30T09:12:52.218Z,87.28
2022-11-30T09:17:54.111Z,86.03
2022-11-30T09:22:55.668Z,86.48
2022-11-30T09:27:57.258Z,86.31
2022-11-30T09:33:00.520Z,86.45
2022-11-30T09:38:02.070Z,86.28
2022-11-30T09:43:22.048Z,86.77
2022-11-30T09:48:32.208Z,86.54
2022-11-30T09:53:51.594Z,85.88
2022-11-30T09:59:08.497Z,86.65
2022-11-30T10:04:23.848Z,86.39
2022-11-30T10:10:23.743Z,86.92
2022-11-30T10:15:35.544Z,86.93
2022-11-30T10:21:09.456Z,86.14
2022-11-30T10:26:24.923Z,86.63
2022-11-30T10:31:34.781Z,85.45
2022-11-30T10:36:46.363Z,86.45
2022-11-30T10:41:53.885Z,86.76
2022-11-30T10:47:03.087Z,85.76
2022-11-30T10:52:08.869Z,85.51
2022-11-30T10:57:10.538Z,85.90
2022-11-30T11:02:33.849Z,86.51
2022-11-30T11:07:56.395Z,86.17
2022-11-30T11:12:59.437Z,85.01
2022-11-30T11:18:26.891Z,84.92
2022-11-30T11:23:39.774Z,85.04
2022-11-30T11:28:45.568Z,85.97
2022-11-30T11:33:52.707Z,85.34
2022-11-30T11:38:54.758Z,85.33
2022-11-30T11:44:23.148Z,84.17
2022-11-30T11:49:28.582Z,85.33
2022-11-30T11:54:47.137Z,85.22
2022-11-30T12:00:16.334Z,84.66
2022-11-30T12:05:21.122Z,84.87
2022-11-30T12:16:00.912Z,84.89
2022-11-30T12:21:11.696Z,84.62
2022-11-30T12:26:38.316Z,82.87
2022-11-30T12:32:00.110Z,84.73
2022-11-30T12:37:01.628Z,85.07
2022-11-30T12:42:18.840Z,84.92
2022-11-30T12:47:46.545Z,84.81
2022-11-30T12:53:07.428Z,84.16
2022-11-30T12:58:36.693Z,84.25
2022-11-30T13:03:48.029Z,83.75
2022-11-30T13:09:14.694Z,84.28
2022-11-30T13:14:22.398Z,83.84
2022-11-30T13:19:40.938Z,82.87
2022-11-30T13:24:49.905Z,82.46
2022-11-30T13:30:21.712Z,83.01
2022-11-30T13:35:29.253Z,84.04
2022-11-30T13:40:31.327Z,82.83
2022-11-30T13:45:34.737Z,83.90
2022-11-30T13:50:38.756Z,83.31
2022-11-30T13:55:42.968Z,83.69
2022-11-30T14:00:58.354Z,83.61
2022-11-30T14:06:01.784Z,83.86
2022-11-30T14:11:38.931Z,83.09
2022-11-30T14:16:42.165Z,83.12
2022-11-30T14:21:44.905Z,83.21
2022-11-30T14:26:50.295Z,83.86
2022-11-30T14:31:58.534Z,83.83
2022-11-30T14:37:03.641Z,83.73
2022-11-30T14:42:05.709Z,82.85
2022-11-30T14:47:20.564Z,83.47
2022-11-30T14:52:59.474Z,82.63
2022-11-30T14:58:32.372Z,82.71
2022-11-30T15:03:40.387Z,83.51
2022-11-30T15:08:49.975Z,83.46
2022-11-30T15:13:56.363Z,83.16
2022-11-30T15:18:59.648Z,82.93
2022-11-30T15:24:01.749Z,83.70
2022-11-30T15:29:06.478Z,83.26
2022-11-30T15:34:19.144Z,82.94
2022-11-30T15:39:23.683Z,82.15
2022-11-30T15:44:47.225Z,82.28
2022-11-30T15:49:54.782Z,82.95
2022-11-30T15:54:59.702Z,81.67
2022-11-30T16:00:16.432Z,82.79
2022-11-30T16:05:20.907Z,82.23
2022-11-30T16:10:40.816Z,83.28
2022-11-30T16:15:47.398Z,82.44
2022-11-30T16:20:52.040Z,82.56
2022-11-30T16:25:54.148Z,82.74
2022-11-30T16:31:00.386Z,82.45
2022-11-30T16:36:06.692Z,82.42
2022-11-30T16:41:22.934Z,82.52
2022-11-30T16:46:27.116Z,82.05
2022-11-30T16:51:31.522Z,81.38
2022-11-30T16:56:39.299Z,81.68
2022-11-30T17:01:47.338Z,81.85
2022-11-30T17:06:50.923Z,82.21
2022-11-30T17:11:53.109Z,82.08
2022-11-30T17:16:54.603Z,81.96
2022-11-30T17:21:56.145Z,82.12
2022-11-30T17:26:57.646Z,81.85
2022-11-30T17:31:59.064Z,81.91
2022-11-30T17:37:00.629Z,82.02
2022-11-30T17:42:02.169Z,81.83
2022-11-30T17:47:03.575Z,80.70
2022-11-30T17:52:04.976Z,81.16
2022-11-30T17:57:06.654Z,80.11
2022-11-30T18:02:11.279Z,81.08
2022-11-30T18:07:12.865Z,80.67
2022-11-30T18:12:14.306Z,80.26
2022-11-30T18:17:15.758Z,80.44
2022-11-30T18:22:17.298Z,80.39
2022-11-30T18:27:18.715Z,81.11
2022-11-30T18:32:20.156Z,81.16
2022-11-30T18:37:21.626Z,80.87
2022-11-30T18:42:23.062Z,81.10
2022-11-30T18:47:24.505Z,80.43
2022-11-30T18:52:25.935Z,80.69
2022-11-30T18:57:27.468Z,80.24
2022-11-30T19:02:29.006Z,79.82
2022-11-30T19:07:31.883Z,81.03
2022-11-30T19:12:34.971Z,80.87
2022-11-30T19:17:36.752Z,80.68
2022-11-30T19:22:39.084Z,80.89
2022-11-30T19:27:41.318Z,81.23
2022-11-30T19:32:43.485Z,80.36
2022-11-30T19:37:45.590Z,80.60
2022-11-30T19:42:47.705Z,79.80
2022-11-30T19:47:49.814Z,79.87
2022-11-30T19:52:52.097Z,80.79
2022-11-30T19:57:53.989Z,80.01
2022-11-30T20:02:56.187Z,80.01
2022-11-30T20:07:58.455Z,80.14
2022-11-30T20:12:59.973Z,79.18
2022-11-30T20:18:01.412Z,79.38
2022-11-30T20:23:03.506Z,79.30
2022-11-30T20:28:09.677Z,80.72
2022-11-30T20:33:13.854Z,80.15
2022-11-30T20:38:15.434Z,80.44
2022-11-30T20:43:16.863Z,80.22
2022-11-30T20:48:18.542Z,80.11
2022-11-30T20:53:20.109Z,80.38
2022-11-30T20:58:25.859Z,80.87
2022-11-30T21:03:28.076Z,80.20
2022-11-30T21:08:33.605Z,80.54
2022-11-30T21:13:35.153Z,79.76
2022-11-30T21:18:38.225Z,80.11
2022-11-30T21:23:39.821Z,79.40
2022-11-30T21:28:41.254Z,80.53
2022-11-30T21:33:48.455Z,79.46
2022-11-30T21:39:01.000Z,80.21
2022-11-30T21:44:07.822Z,79.62
2022-11-30T21:49:11.984Z,80.41
2022-11-30T21:54:15.421Z,80.67
2022-11-30T21:59:19.131Z,80.38
2022-11-30T22:04:20.653Z,80.54
2022-11-30T22:09:22.147Z,80.63
2022-11-30T22:14:24.293Z,79.18
2022-11-30T22:19:25.703Z,79.78
2022-11-30T22:24:27.122Z,79.19
2022-11-30T22:29:29.360Z,79.41
2022-11-30T22:34:32.231Z,79.59
2022-11-30T22:39:33.636Z,79.97
2022-11-30T22:44:35.072Z,80.30
2022-11-30T22:49:36.553Z,79.96
2022-11-30T22:54:38.097Z,79.65
2022-11-30T22:59:39.575Z,78.21
2022-11-30T23:04:41.005Z,79.84
2022-11-30T23:09:42.417Z,79.34
2022-11-30T23:14:43.840Z,79.31
2022-11-30T23:19:45.434Z,78.76
2022-11-30T23:24:47.074Z,79.29
2022-11-30T23:29:48.609Z,79.33
2022-11-30T23:34:50.941Z,79.81
2022-11-30T23:39:52.484Z,78.86
2022-11-30T23:45:01.063Z,79.84
2022-11-30T23:50:03.011Z,79.29
2022-11-30T23:55:04.855Z,79.73
